sensor_id;sensor_type;location;lat;lon;timestamp;temperature;humidity
7686;DHT22;3885;51.474;-2.576;2022-08-01T00:02:07;17.70;99.90
7686;DHT22;3885;51.474;-2.576;2022-08-01T00:04:34;17.70;99.90
7686;DHT22;3885;51.474;-2.576;2022-08-01T00:07:02;17.70;99.90
7686;DHT22;3885;51.474;-2.576;2022-08-01T00:09:29;17.70;99.90
7686;DHT22;3885;51.474;-2.576;2022-08-01T00:11:56;17.70;99.90
7686;DHT22;3885;51.474;-2.576;2022-08-01T00:14:23;17.70;99.90
7686;DHT22;3885;51.474;-2.576;2022-08-01T00:16:50;17.60;99.90
7686;DHT22;3885;51.474;-2.576;2022-08-01T00:19:17;17.60;99.90
7686;DHT22;3885;51.474;-2.576;2022-08-01T00:21:43;17.60;99.90
7686;DHT22;3885;51.474;-2.576;2022-08-01T00:24:12;17.70;99.90
7686;DHT22;3885;51.474;-2.576;2022-08-01T00:26:39;17.70;99.90
7686;DHT22;3885;51.474;-2.576;2022-08-01T00:29:05;17.70;99.90
7686;DHT22;3885;51.474;-2.576;2022-08-01T00:31:32;17.70;99.90
7686;DHT22;3885;51.474;-2.576;2022-08-01T00:33:59;17.70;99.90
7686;DHT22;3885;51.474;-2.576;2022-08-01T00:36:26;17.80;99.90
7686;DHT22;3885;51.474;-2.576;2022-08-01T00:38:53;17.80;99.90
7686;DHT22;3885;51.474;-2.576;2022-08-01T00:41:21;17.80;99.90
7686;DHT22;3885;51.474;-2.576;2022-08-01T00:43:48;17.80;99.90
7686;DHT22;3885;51.474;-2.576;2022-08-01T00:46:15;17.90;99.90
7686;DHT22;3885;51.474;-2.576;2022-08-01T00:48:42;17.90;99.90
7686;DHT22;3885;51.474;-2.576;2022-08-01T00:51:09;18.00;99.90
7686;DHT22;3885;51.474;-2.576;2022-08-01T00:53:37;18.00;99.90
7686;DHT22;3885;51.474;-2.576;2022-08-01T00:56:04;18.00;99.90
7686;DHT22;3885;51.474;-2.576;2022-08-01T00:58:33;18.00;99.90
7686;DHT22;3885;51.474;-2.576;2022-08-01T01:01:00;17.90;99.90
7686;DHT22;3885;51.474;-2.576;2022-08-01T01:03:27;17.90;99.90
7686;DHT22;3885;51.474;-2.576;2022-08-01T01:06:12;17.90;99.90
7686;DHT22;3885;51.474;-2.576;2022-08-01T01:08:43;17.90;99.90
7686;DHT22;3885;51.474;-2.576;2022-08-01T01:11:19;17.90;99.90
7686;DHT22;3885;51.474;-2.576;2022-08-01T01:13:54;17.80;99.90
7686;DHT22;3885;51.474;-2.576;2022-08-01T01:16:24;17.80;99.90
7686;DHT22;3885;51.474;-2.576;2022-08-01T01:18:55;17.80;99.90
7686;DHT22;3885;51.474;-2.576;2022-08-01T01:21:47;17.70;99.90
7686;DHT22;3885;51.474;-2.576;2022-08-01T01:24:28;17.70;99.90
7686;DHT22;3885;51.474;-2.576;2022-08-01T01:27:08;17.60;99.90
7686;DHT22;3885;51.474;-2.576;2022-08-01T01:29:42;17.60;99.90
7686;DHT22;3885;51.474;-2.576;2022-08-01T01:32:14;17.60;99.90
7686;DHT22;3885;51.474;-2.576;2022-08-01T01:34:45;17.60;99.90
7686;DHT22;3885;51.474;-2.576;2022-08-01T01:37:16;17.60;99.90
7686;DHT22;3885;51.474;-2.576;2022-08-01T01:39:44;17.60;99.90
7686;DHT22;3885;51.474;-2.576;2022-08-01T01:42:14;17.60;99.90
7686;DHT22;3885;51.474;-2.576;2022-08-01T01:44:45;17.60;99.90
7686;DHT22;3885;51.474;-2.576;2022-08-01T01:47:12;17.60;99.90
7686;DHT22;3885;51.474;-2.576;2022-08-01T01:49:41;17.50;99.90
7686;DHT22;3885;51.474;-2.576;2022-08-01T01:52:11;17.50;99.90
7686;DHT22;3885;51.474;-2.576;2022-08-01T01:54:42;17.40;99.90
7686;DHT22;3885;51.474;-2.576;2022-08-01T01:57:12;17.40;99.90
7686;DHT22;3885;51.474;-2.576;2022-08-01T01:59:40;17.30;99.90
7686;DHT22;3885;51.474;-2.576;2022-08-01T02:02:09;17.20;99.90
7686;DHT22;3885;51.474;-2.576;2022-08-01T02:04:40;17.00;99.90
7686;DHT22;3885;51.474;-2.576;2022-08-01T02:07:09;16.90;99.90
7686;DHT22;3885;51.474;-2.576;2022-08-01T02:09:38;16.90;99.90
7686;DHT22;3885;51.474;-2.576;2022-08-01T02:12:07;16.80;99.90
7686;DHT22;3885;51.474;-2.576;2022-08-01T02:14:37;16.80;99.90
7686;DHT22;3885;51.474;-2.576;2022-08-01T02:17:06;16.70;99.90
7686;DHT22;3885;51.474;-2.576;2022-08-01T02:19:34;16.70;99.90
7686;DHT22;3885;51.474;-2.576;2022-08-01T02:22:04;16.80;99.90
7686;DHT22;3885;51.474;-2.576;2022-08-01T02:24:37;16.80;99.90
7686;DHT22;3885;51.474;-2.576;2022-08-01T02:27:09;16.80;99.90
7686;DHT22;3885;51.474;-2.576;2022-08-01T02:29:39;16.80;99.90
7686;DHT22;3885;51.474;-2.576;2022-08-01T02:32:11;16.80;99.90
7686;DHT22;3885;51.474;-2.576;2022-08-01T02:34:41;16.80;99.90
7686;DHT22;3885;51.474;-2.576;2022-08-01T02:37:10;16.80;99.90
7686;DHT22;3885;51.474;-2.576;2022-08-01T02:39:38;16.80;99.90
7686;DHT22;3885;51.474;-2.576;2022-08-01T02:42:07;16.80;99.90
7686;DHT22;3885;51.474;-2.576;2022-08-01T02:44:38;16.90;99.90
7686;DHT22;3885;51.474;-2.576;2022-08-01T02:47:07;16.90;99.90
7686;DHT22;3885;51.474;-2.576;2022-08-01T02:49:37;16.90;99.90
7686;DHT22;3885;51.474;-2.576;2022-08-01T02:52:10;16.80;99.90
7686;DHT22;3885;51.474;-2.576;2022-08-01T02:54:39;16.80;99.90
7686;DHT22;3885;51.474;-2.576;2022-08-01T02:57:08;16.80;99.90
7686;DHT22;3885;51.474;-2.576;2022-08-01T02:59:37;16.80;99.90
7686;DHT22;3885;51.474;-2.576;2022-08-01T03:02:06;16.70;99.90
7686;DHT22;3885;51.474;-2.576;2022-08-01T03:04:34;16.70;99.90
7686;DHT22;3885;51.474;-2.576;2022-08-01T03:07:03;16.80;99.90
7686;DHT22;3885;51.474;-2.576;2022-08-01T03:09:35;16.80;99.90
7686;DHT22;3885;51.474;-2.576;2022-08-01T03:12:06;16.80;99.90
7686;DHT22;3885;51.474;-2.576;2022-08-01T03:14:36;16.80;99.90
7686;DHT22;3885;51.474;-2.576;2022-08-01T03:17:05;16.80;99.90
7686;DHT22;3885;51.474;-2.576;2022-08-01T03:19:33;16.80;99.90
7686;DHT22;3885;51.474;-2.576;2022-08-01T03:22:07;16.80;99.90
7686;DHT22;3885;51.474;-2.576;2022-08-01T03:24:37;16.80;99.90
7686;DHT22;3885;51.474;-2.576;2022-08-01T03:27:05;16.70;99.90
7686;DHT22;3885;51.474;-2.576;2022-08-01T03:29:32;16.80;99.90
7686;DHT22;3885;51.474;-2.576;2022-08-01T03:32:01;16.80;99.90
7686;DHT22;3885;51.474;-2.576;2022-08-01T03:34:29;16.70;99.90
7686;DHT22;3885;51.474;-2.576;2022-08-01T03:37:01;16.70;99.90
7686;DHT22;3885;51.474;-2.576;2022-08-01T03:39:37;16.70;99.90
7686;DHT22;3885;51.474;-2.576;2022-08-01T03:42:11;16.70;99.90
7686;DHT22;3885;51.474;-2.576;2022-08-01T03:44:40;16.60;99.90
7686;DHT22;3885;51.474;-2.576;2022-08-01T03:47:09;16.60;99.90
7686;DHT22;3885;51.474;-2.576;2022-08-01T03:49:40;16.60;99.90
7686;DHT22;3885;51.474;-2.576;2022-08-01T03:52:09;16.60;99.90
7686;DHT22;3885;51.474;-2.576;2022-08-01T03:54:40;16.60;99.90
7686;DHT22;3885;51.474;-2.576;2022-08-01T03:57:09;16.60;99.90
7686;DHT22;3885;51.474;-2.576;2022-08-01T03:59:37;16.60;99.90
7686;DHT22;3885;51.474;-2.576;2022-08-01T04:02:05;16.60;99.90
7686;DHT22;3885;51.474;-2.576;2022-08-01T04:04:32;16.60;99.90
7686;DHT22;3885;51.474;-2.576;2022-08-01T04:07:00;16.60;99.90
7686;DHT22;3885;51.474;-2.576;2022-08-01T04:09:30;16.60;99.90
7686;DHT22;3885;51.474;-2.576;2022-08-01T04:11:58;16.60;99.90
7686;DHT22;3885;51.474;-2.576;2022-08-01T04:14:27;16.60;99.90
7686;DHT22;3885;51.474;-2.576;2022-08-01T04:16:54;16.50;99.90
7686;DHT22;3885;51.474;-2.576;2022-08-01T04:19:21;16.60;99.90
7686;DHT22;3885;51.474;-2.576;2022-08-01T04:21:48;16.60;99.90
7686;DHT22;3885;51.474;-2.576;2022-08-01T04:24:17;16.60;99.90
7686;DHT22;3885;51.474;-2.576;2022-08-01T04:26:46;16.60;99.90
7686;DHT22;3885;51.474;-2.576;2022-08-01T04:29:16;16.60;99.90
7686;DHT22;3885;51.474;-2.576;2022-08-01T04:31:47;16.60;99.90
7686;DHT22;3885;51.474;-2.576;2022-08-01T04:34:17;16.50;99.90
7686;DHT22;3885;51.474;-2.576;2022-08-01T04:36:47;16.40;99.90
7686;DHT22;3885;51.474;-2.576;2022-08-01T04:39:16;16.40;99.90
7686;DHT22;3885;51.474;-2.576;2022-08-01T04:41:44;16.40;99.90
7686;DHT22;3885;51.474;-2.576;2022-08-01T04:44:12;16.40;99.90
7686;DHT22;3885;51.474;-2.576;2022-08-01T04:46:40;16.50;99.90
7686;DHT22;3885;51.474;-2.576;2022-08-01T04:49:10;16.40;99.90
7686;DHT22;3885;51.474;-2.576;2022-08-01T04:51:49;16.50;99.90
7686;DHT22;3885;51.474;-2.576;2022-08-01T04:54:16;16.50;99.90
7686;DHT22;3885;51.474;-2.576;2022-08-01T04:56:43;16.50;99.90
7686;DHT22;3885;51.474;-2.576;2022-08-01T04:59:11;16.50;99.90
7686;DHT22;3885;51.474;-2.576;2022-08-01T05:01:55;16.40;99.90
7686;DHT22;3885;51.474;-2.576;2022-08-01T05:04:23;16.40;99.90
7686;DHT22;3885;51.474;-2.576;2022-08-01T05:06:50;16.30;99.90
7686;DHT22;3885;51.474;-2.576;2022-08-01T05:09:17;16.30;99.90
7686;DHT22;3885;51.474;-2.576;2022-08-01T05:11:44;16.30;99.90
7686;DHT22;3885;51.474;-2.576;2022-08-01T05:14:11;16.30;99.90
7686;DHT22;3885;51.474;-2.576;2022-08-01T05:16:38;16.20;99.90
7686;DHT22;3885;51.474;-2.576;2022-08-01T05:19:05;16.20;99.90
7686;DHT22;3885;51.474;-2.576;2022-08-01T05:21:35;16.20;99.90
7686;DHT22;3885;51.474;-2.576;2022-08-01T05:24:03;16.20;99.90
7686;DHT22;3885;51.474;-2.576;2022-08-01T05:26:31;16.20;99.90
7686;DHT22;3885;51.474;-2.576;2022-08-01T05:28:58;16.20;99.90
7686;DHT22;3885;51.474;-2.576;2022-08-01T05:31:25;16.10;99.90
7686;DHT22;3885;51.474;-2.576;2022-08-01T05:33:52;16.10;99.90
7686;DHT22;3885;51.474;-2.576;2022-08-01T05:36:19;16.10;99.90
7686;DHT22;3885;51.474;-2.576;2022-08-01T05:38:47;16.20;99.90
7686;DHT22;3885;51.474;-2.576;2022-08-01T05:41:14;16.20;99.90
7686;DHT22;3885;51.474;-2.576;2022-08-01T05:43:41;16.20;99.90
7686;DHT22;3885;51.474;-2.576;2022-08-01T05:46:08;16.30;99.90
7686;DHT22;3885;51.474;-2.576;2022-08-01T05:48:35;16.30;99.90
7686;DHT22;3885;51.474;-2.576;2022-08-01T05:51:02;16.30;99.90
7686;DHT22;3885;51.474;-2.576;2022-08-01T05:53:29;16.40;99.90
7686;DHT22;3885;51.474;-2.576;2022-08-01T05:56:01;16.40;99.90
7686;DHT22;3885;51.474;-2.576;2022-08-01T05:58:28;16.50;99.90
7686;DHT22;3885;51.474;-2.576;2022-08-01T06:00:55;16.50;99.90
7686;DHT22;3885;51.474;-2.576;2022-08-01T06:03:22;16.60;99.90
7686;DHT22;3885;51.474;-2.576;2022-08-01T06:05:49;16.60;99.90
7686;DHT22;3885;51.474;-2.576;2022-08-01T06:08:15;16.70;99.90
7686;DHT22;3885;51.474;-2.576;2022-08-01T06:10:42;16.70;99.90
7686;DHT22;3885;51.474;-2.576;2022-08-01T06:13:11;16.70;99.90
7686;DHT22;3885;51.474;-2.576;2022-08-01T06:15:38;16.70;99.90
7686;DHT22;3885;51.474;-2.576;2022-08-01T06:18:05;16.70;99.90
7686;DHT22;3885;51.474;-2.576;2022-08-01T06:20:32;16.80;99.90
7686;DHT22;3885;51.474;-2.576;2022-08-01T06:22:58;16.80;99.90
7686;DHT22;3885;51.474;-2.576;2022-08-01T06:25:25;16.80;99.90
7686;DHT22;3885;51.474;-2.576;2022-08-01T06:27:52;16.80;99.90
7686;DHT22;3885;51.474;-2.576;2022-08-01T06:30:21;16.80;99.90
7686;DHT22;3885;51.474;-2.576;2022-08-01T06:32:48;16.80;99.90
7686;DHT22;3885;51.474;-2.576;2022-08-01T06:35:15;16.90;99.90
7686;DHT22;3885;51.474;-2.576;2022-08-01T06:37:42;17.00;99.90
7686;DHT22;3885;51.474;-2.576;2022-08-01T06:40:11;17.10;99.90
7686;DHT22;3885;51.474;-2.576;2022-08-01T06:42:38;17.10;99.90
7686;DHT22;3885;51.474;-2.576;2022-08-01T06:45:07;17.30;99.90
7686;DHT22;3885;51.474;-2.576;2022-08-01T06:47:36;17.30;99.90
7686;DHT22;3885;51.474;-2.576;2022-08-01T06:50:04;17.40;99.90
7686;DHT22;3885;51.474;-2.576;2022-08-01T06:52:31;17.40;99.90
7686;DHT22;3885;51.474;-2.576;2022-08-01T06:54:58;17.60;99.90
7686;DHT22;3885;51.474;-2.576;2022-08-01T06:57:25;17.60;99.90
7686;DHT22;3885;51.474;-2.576;2022-08-01T06:59:52;17.70;99.90
7686;DHT22;3885;51.474;-2.576;2022-08-01T07:02:19;17.80;99.90
7686;DHT22;3885;51.474;-2.576;2022-08-01T07:04:47;17.90;99.90
7686;DHT22;3885;51.474;-2.576;2022-08-01T07:07:14;18.00;99.90
7686;DHT22;3885;51.474;-2.576;2022-08-01T07:09:41;18.10;99.90
7686;DHT22;3885;51.474;-2.576;2022-08-01T07:12:08;18.20;99.90
7686;DHT22;3885;51.474;-2.576;2022-08-01T07:14:35;18.20;99.90
7686;DHT22;3885;51.474;-2.576;2022-08-01T07:17:02;18.40;99.90
7686;DHT22;3885;51.474;-2.576;2022-08-01T07:19:29;18.40;99.90
7686;DHT22;3885;51.474;-2.576;2022-08-01T07:21:57;18.40;99.90
7686;DHT22;3885;51.474;-2.576;2022-08-01T07:24:24;18.30;99.90
7686;DHT22;3885;51.474;-2.576;2022-08-01T07:29:19;18.10;99.90
7686;DHT22;3885;51.474;-2.576;2022-08-01T07:31:46;18.20;99.90
7686;DHT22;3885;51.474;-2.576;2022-08-01T07:34:13;18.00;99.90
7686;DHT22;3885;51.474;-2.576;2022-08-01T07:36:40;18.20;99.90
7686;DHT22;3885;51.474;-2.576;2022-08-01T07:39:08;18.20;99.90
7686;DHT22;3885;51.474;-2.576;2022-08-01T07:41:35;18.00;99.90
7686;DHT22;3885;51.474;-2.576;2022-08-01T07:44:02;18.10;99.90
7686;DHT22;3885;51.474;-2.576;2022-08-01T07:46:30;18.10;99.90
7686;DHT22;3885;51.474;-2.576;2022-08-01T07:48:57;18.10;99.90
7686;DHT22;3885;51.474;-2.576;2022-08-01T07:51:24;18.10;99.90
7686;DHT22;3885;51.474;-2.576;2022-08-01T07:53:50;18.20;99.90
7686;DHT22;3885;51.474;-2.576;2022-08-01T07:56:20;18.40;99.90
7686;DHT22;3885;51.474;-2.576;2022-08-01T07:58:49;18.40;99.90
7686;DHT22;3885;51.474;-2.576;2022-08-01T08:01:16;18.60;99.90
7686;DHT22;3885;51.474;-2.576;2022-08-01T08:03:43;18.80;99.90
7686;DHT22;3885;51.474;-2.576;2022-08-01T08:06:10;18.80;99.90
7686;DHT22;3885;51.474;-2.576;2022-08-01T08:08:37;19.30;99.90
7686;DHT22;3885;51.474;-2.576;2022-08-01T08:11:04;19.30;99.90
7686;DHT22;3885;51.474;-2.576;2022-08-01T08:13:32;19.70;99.90
7686;DHT22;3885;51.474;-2.576;2022-08-01T08:15:59;19.70;99.90
7686;DHT22;3885;51.474;-2.576;2022-08-01T08:18:26;19.70;99.90
7686;DHT22;3885;51.474;-2.576;2022-08-01T08:20:53;19.70;99.90
7686;DHT22;3885;51.474;-2.576;2022-08-01T08:23:20;19.70;99.90
7686;DHT22;3885;51.474;-2.576;2022-08-01T08:26:04;19.80;99.90
7686;DHT22;3885;51.474;-2.576;2022-08-01T08:28:32;20.10;99.90
7686;DHT22;3885;51.474;-2.576;2022-08-01T08:30:59;20.10;99.90
7686;DHT22;3885;51.474;-2.576;2022-08-01T08:33:26;20.30;99.90
7686;DHT22;3885;51.474;-2.576;2022-08-01T08:35:53;20.50;99.90
7686;DHT22;3885;51.474;-2.576;2022-08-01T08:38:20;20.80;99.90
7686;DHT22;3885;51.474;-2.576;2022-08-01T08:40:47;20.90;99.90
7686;DHT22;3885;51.474;-2.576;2022-08-01T08:43:15;20.80;99.90
7686;DHT22;3885;51.474;-2.576;2022-08-01T08:45:44;20.50;99.90
7686;DHT22;3885;51.474;-2.576;2022-08-01T08:48:12;20.50;99.90
7686;DHT22;3885;51.474;-2.576;2022-08-01T08:50:41;20.50;99.90
7686;DHT22;3885;51.474;-2.576;2022-08-01T08:53:09;20.80;99.90
7686;DHT22;3885;51.474;-2.576;2022-08-01T08:55:36;21.00;99.90
7686;DHT22;3885;51.474;-2.576;2022-08-01T08:58:04;21.00;99.90
7686;DHT22;3885;51.474;-2.576;2022-08-01T09:00:31;21.20;99.90
7686;DHT22;3885;51.474;-2.576;2022-08-01T09:03:01;21.40;99.90
7686;DHT22;3885;51.474;-2.576;2022-08-01T09:05:28;21.50;99.90
7686;DHT22;3885;51.474;-2.576;2022-08-01T09:07:55;21.60;99.90
7686;DHT22;3885;51.474;-2.576;2022-08-01T09:10:22;21.80;99.90
7686;DHT22;3885;51.474;-2.576;2022-08-01T09:13:02;21.80;99.90
7686;DHT22;3885;51.474;-2.576;2022-08-01T09:15:38;21.70;99.90
7686;DHT22;3885;51.474;-2.576;2022-08-01T09:18:06;21.60;99.90
7686;DHT22;3885;51.474;-2.576;2022-08-01T09:20:33;21.60;99.90
7686;DHT22;3885;51.474;-2.576;2022-08-01T09:23:01;21.40;99.90
7686;DHT22;3885;51.474;-2.576;2022-08-01T09:25:29;21.70;99.90
7686;DHT22;3885;51.474;-2.576;2022-08-01T09:28:04;21.90;99.90
7686;DHT22;3885;51.474;-2.576;2022-08-01T09:30:37;22.00;99.90
7686;DHT22;3885;51.474;-2.576;2022-08-01T09:33:06;22.40;99.90
7686;DHT22;3885;51.474;-2.576;2022-08-01T09:35:35;22.40;99.90
7686;DHT22;3885;51.474;-2.576;2022-08-01T09:38:13;22.60;99.90
7686;DHT22;3885;51.474;-2.576;2022-08-01T09:40:49;22.80;99.90
7686;DHT22;3885;51.474;-2.576;2022-08-01T09:43:17;22.80;99.90
7686;DHT22;3885;51.474;-2.576;2022-08-01T09:45:45;22.90;99.90
7686;DHT22;3885;51.474;-2.576;2022-08-01T09:48:13;23.00;99.90
7686;DHT22;3885;51.474;-2.576;2022-08-01T09:50:43;23.10;99.90
7686;DHT22;3885;51.474;-2.576;2022-08-01T09:53:10;23.20;99.90
7686;DHT22;3885;51.474;-2.576;2022-08-01T09:55:38;23.00;99.90
7686;DHT22;3885;51.474;-2.576;2022-08-01T09:58:05;22.90;99.90
7686;DHT22;3885;51.474;-2.576;2022-08-01T10:00:33;22.90;99.90
7686;DHT22;3885;51.474;-2.576;2022-08-01T10:03:20;23.10;99.90
7686;DHT22;3885;51.474;-2.576;2022-08-01T10:05:47;23.00;99.90
7686;DHT22;3885;51.474;-2.576;2022-08-01T10:08:14;23.10;99.90
7686;DHT22;3885;51.474;-2.576;2022-08-01T10:10:43;23.20;99.90
7686;DHT22;3885;51.474;-2.576;2022-08-01T10:13:30;23.30;99.90
7686;DHT22;3885;51.474;-2.576;2022-08-01T10:15:57;23.40;99.90
7686;DHT22;3885;51.474;-2.576;2022-08-01T10:18:25;23.40;99.90
7686;DHT22;3885;51.474;-2.576;2022-08-01T10:20:54;23.60;99.90
7686;DHT22;3885;51.474;-2.576;2022-08-01T10:23:21;23.50;99.90
7686;DHT22;3885;51.474;-2.576;2022-08-01T10:25:50;23.60;99.90
7686;DHT22;3885;51.474;-2.576;2022-08-01T10:28:20;23.70;99.90
7686;DHT22;3885;51.474;-2.576;2022-08-01T10:30:48;23.80;99.90
7686;DHT22;3885;51.474;-2.576;2022-08-01T10:33:16;23.90;99.40
7686;DHT22;3885;51.474;-2.576;2022-08-01T10:35:46;23.90;99.10
7686;DHT22;3885;51.474;-2.576;2022-08-01T10:38:13;23.80;99.90
7686;DHT22;3885;51.474;-2.576;2022-08-01T10:40:41;24.00;99.90
7686;DHT22;3885;51.474;-2.576;2022-08-01T10:43:09;24.00;99.70
7686;DHT22;3885;51.474;-2.576;2022-08-01T10:45:36;24.10;99.30
7686;DHT22;3885;51.474;-2.576;2022-08-01T10:48:09;23.90;99.10
7686;DHT22;3885;51.474;-2.576;2022-08-01T10:50:39;23.70;99.70
7686;DHT22;3885;51.474;-2.576;2022-08-01T10:53:15;23.80;99.30
7686;DHT22;3885;51.474;-2.576;2022-08-01T10:55:46;23.80;98.80
7686;DHT22;3885;51.474;-2.576;2022-08-01T10:58:13;23.90;99.30
7686;DHT22;3885;51.474;-2.576;2022-08-01T11:00:46;23.80;99.20
7686;DHT22;3885;51.474;-2.576;2022-08-01T11:03:12;23.90;99.60
7686;DHT22;3885;51.474;-2.576;2022-08-01T11:05:42;23.90;99.20
7686;DHT22;3885;51.474;-2.576;2022-08-01T11:08:21;23.80;98.80
7686;DHT22;3885;51.474;-2.576;2022-08-01T11:10:59;23.80;99.30
7686;DHT22;3885;51.474;-2.576;2022-08-01T11:14:00;23.90;99.70
7686;DHT22;3885;51.474;-2.576;2022-08-01T11:16:28;24.00;98.70
7686;DHT22;3885;51.474;-2.576;2022-08-01T11:18:55;24.20;99.40
7686;DHT22;3885;51.474;-2.576;2022-08-01T11:21:22;24.40;98.60
7686;DHT22;3885;51.474;-2.576;2022-08-01T11:24:10;24.30;98.50
7686;DHT22;3885;51.474;-2.576;2022-08-01T11:26:37;24.50;98.90
7686;DHT22;3885;51.474;-2.576;2022-08-01T11:29:16;24.70;98.70
7686;DHT22;3885;51.474;-2.576;2022-08-01T11:31:43;24.70;97.80
7686;DHT22;3885;51.474;-2.576;2022-08-01T11:34:10;24.70;98.10
7686;DHT22;3885;51.474;-2.576;2022-08-01T11:36:37;24.60;98.20
7686;DHT22;3885;51.474;-2.576;2022-08-01T11:39:13;24.60;98.50
7686;DHT22;3885;51.474;-2.576;2022-08-01T11:41:41;24.50;98.50
7686;DHT22;3885;51.474;-2.576;2022-08-01T11:44:09;24.60;98.80
7686;DHT22;3885;51.474;-2.576;2022-08-01T11:46:54;24.60;98.50
7686;DHT22;3885;51.474;-2.576;2022-08-01T11:49:43;24.40;98.10
7686;DHT22;3885;51.474;-2.576;2022-08-01T11:52:17;24.50;98.90
7686;DHT22;3885;51.474;-2.576;2022-08-01T11:54:47;24.50;98.20
7686;DHT22;3885;51.474;-2.576;2022-08-01T11:57:17;24.70;98.60
7686;DHT22;3885;51.474;-2.576;2022-08-01T11:59:46;24.90;98.20
7686;DHT22;3885;51.474;-2.576;2022-08-01T12:02:24;24.90;97.50
7686;DHT22;3885;51.474;-2.576;2022-08-01T12:04:55;24.80;98.00
7686;DHT22;3885;51.474;-2.576;2022-08-01T12:07:24;24.90;98.80
7686;DHT22;3885;51.474;-2.576;2022-08-01T12:10:00;25.10;98.40
7686;DHT22;3885;51.474;-2.576;2022-08-01T12:12:29;25.10;98.20
7686;DHT22;3885;51.474;-2.576;2022-08-01T12:14:58;25.30;98.50
7686;DHT22;3885;51.474;-2.576;2022-08-01T12:17:34;25.30;98.40
7686;DHT22;3885;51.474;-2.576;2022-08-01T12:20:02;25.40;98.10
7686;DHT22;3885;51.474;-2.576;2022-08-01T12:22:30;25.40;98.40
7686;DHT22;3885;51.474;-2.576;2022-08-01T12:25:06;25.40;98.20
7686;DHT22;3885;51.474;-2.576;2022-08-01T12:27:34;25.20;98.30
7686;DHT22;3885;51.474;-2.576;2022-08-01T12:30:03;25.10;98.40
7686;DHT22;3885;51.474;-2.576;2022-08-01T12:32:33;25.20;98.60
7686;DHT22;3885;51.474;-2.576;2022-08-01T12:35:04;25.10;99.10
7686;DHT22;3885;51.474;-2.576;2022-08-01T12:37:32;25.20;98.50
7686;DHT22;3885;51.474;-2.576;2022-08-01T12:40:06;25.10;98.60
7686;DHT22;3885;51.474;-2.576;2022-08-01T12:42:38;25.10;98.60
7686;DHT22;3885;51.474;-2.576;2022-08-01T12:45:08;25.00;98.70
7686;DHT22;3885;51.474;-2.576;2022-08-01T12:47:36;25.10;99.30
7686;DHT22;3885;51.474;-2.576;2022-08-01T12:50:05;25.00;98.80
7686;DHT22;3885;51.474;-2.576;2022-08-01T12:52:33;24.80;99.00
7686;DHT22;3885;51.474;-2.576;2022-08-01T12:55:02;24.80;98.90
7686;DHT22;3885;51.474;-2.576;2022-08-01T12:57:30;24.80;98.70
7686;DHT22;3885;51.474;-2.576;2022-08-01T13:00:20;24.80;98.30
7686;DHT22;3885;51.474;-2.576;2022-08-01T13:02:48;24.70;99.20
7686;DHT22;3885;51.474;-2.576;2022-08-01T13:05:16;24.90;98.90
7686;DHT22;3885;51.474;-2.576;2022-08-01T13:07:46;25.10;99.10
7686;DHT22;3885;51.474;-2.576;2022-08-01T13:10:14;25.20;98.50
7686;DHT22;3885;51.474;-2.576;2022-08-01T13:12:52;25.20;98.00
7686;DHT22;3885;51.474;-2.576;2022-08-01T13:15:25;25.00;98.60
7686;DHT22;3885;51.474;-2.576;2022-08-01T13:17:52;25.00;98.50
7686;DHT22;3885;51.474;-2.576;2022-08-01T13:20:30;25.10;98.10
7686;DHT22;3885;51.474;-2.576;2022-08-01T13:23:12;24.90;98.20
7686;DHT22;3885;51.474;-2.576;2022-08-01T13:25:53;24.70;98.00
7686;DHT22;3885;51.474;-2.576;2022-08-01T13:28:22;24.80;98.10
7686;DHT22;3885;51.474;-2.576;2022-08-01T13:30:56;24.90;98.20
7686;DHT22;3885;51.474;-2.576;2022-08-01T13:33:24;24.90;98.20
7686;DHT22;3885;51.474;-2.576;2022-08-01T13:35:51;24.90;98.10
7686;DHT22;3885;51.474;-2.576;2022-08-01T13:38:18;24.90;97.90
7686;DHT22;3885;51.474;-2.576;2022-08-01T13:40:46;25.00;98.00
7686;DHT22;3885;51.474;-2.576;2022-08-01T13:43:13;25.10;98.40
7686;DHT22;3885;51.474;-2.576;2022-08-01T13:45:40;25.20;97.60
7686;DHT22;3885;51.474;-2.576;2022-08-01T13:48:09;25.30;97.70
7686;DHT22;3885;51.474;-2.576;2022-08-01T13:50:36;25.40;98.20
7686;DHT22;3885;51.474;-2.576;2022-08-01T13:53:02;25.50;98.00
7686;DHT22;3885;51.474;-2.576;2022-08-01T13:55:29;25.40;97.90
7686;DHT22;3885;51.474;-2.576;2022-08-01T13:57:56;25.40;97.60
7686;DHT22;3885;51.474;-2.576;2022-08-01T14:00:23;25.40;97.90
7686;DHT22;3885;51.474;-2.576;2022-08-01T14:02:50;25.40;97.90
7686;DHT22;3885;51.474;-2.576;2022-08-01T14:05:19;25.20;98.00
7686;DHT22;3885;51.474;-2.576;2022-08-01T14:07:45;25.20;98.30
7686;DHT22;3885;51.474;-2.576;2022-08-01T14:10:12;25.20;98.10
7686;DHT22;3885;51.474;-2.576;2022-08-01T14:12:40;25.20;98.70
7686;DHT22;3885;51.474;-2.576;2022-08-01T14:15:08;25.20;98.10
7686;DHT22;3885;51.474;-2.576;2022-08-01T14:17:35;25.30;97.10
7686;DHT22;3885;51.474;-2.576;2022-08-01T14:20:02;25.40;97.60
7686;DHT22;3885;51.474;-2.576;2022-08-01T14:22:32;25.40;97.30
7686;DHT22;3885;51.474;-2.576;2022-08-01T14:24:59;25.30;97.60
7686;DHT22;3885;51.474;-2.576;2022-08-01T14:27:26;25.40;97.80
7686;DHT22;3885;51.474;-2.576;2022-08-01T14:29:55;25.40;98.60
7686;DHT22;3885;51.474;-2.576;2022-08-01T14:32:22;25.50;98.70
7686;DHT22;3885;51.474;-2.576;2022-08-01T14:34:49;25.60;98.30
7686;DHT22;3885;51.474;-2.576;2022-08-01T14:37:16;25.60;98.40
7686;DHT22;3885;51.474;-2.576;2022-08-01T14:39:44;25.70;97.50
7686;DHT22;3885;51.474;-2.576;2022-08-01T14:42:11;25.70;97.50
7686;DHT22;3885;51.474;-2.576;2022-08-01T14:44:38;25.80;97.70
7686;DHT22;3885;51.474;-2.576;2022-08-01T14:47:05;25.90;97.60
7686;DHT22;3885;51.474;-2.576;2022-08-01T14:49:32;25.90;96.90
7686;DHT22;3885;51.474;-2.576;2022-08-01T14:52:00;25.80;97.70
7686;DHT22;3885;51.474;-2.576;2022-08-01T14:54:27;25.80;98.40
7686;DHT22;3885;51.474;-2.576;2022-08-01T14:56:55;26.00;97.90
7686;DHT22;3885;51.474;-2.576;2022-08-01T14:59:22;26.00;98.10
7686;DHT22;3885;51.474;-2.576;2022-08-01T15:01:49;26.00;97.10
7686;DHT22;3885;51.474;-2.576;2022-08-01T15:04:16;26.00;97.70
7686;DHT22;3885;51.474;-2.576;2022-08-01T15:06:43;25.70;98.20
7686;DHT22;3885;51.474;-2.576;2022-08-01T15:18:37;25.80;97.90
7686;DHT22;3885;51.474;-2.576;2022-08-01T15:21:04;25.80;98.20
7686;DHT22;3885;51.474;-2.576;2022-08-01T15:23:31;25.90;98.70
7686;DHT22;3885;51.474;-2.576;2022-08-01T15:25:58;26.00;98.20
7686;DHT22;3885;51.474;-2.576;2022-08-01T15:28:25;26.00;98.50
7686;DHT22;3885;51.474;-2.576;2022-08-01T15:30:52;26.20;98.40
7686;DHT22;3885;51.474;-2.576;2022-08-01T15:33:19;26.20;98.70
7686;DHT22;3885;51.474;-2.576;2022-08-01T15:35:48;26.20;98.30
7686;DHT22;3885;51.474;-2.576;2022-08-01T15:38:15;26.20;99.30
7686;DHT22;3885;51.474;-2.576;2022-08-01T15:43:09;26.20;98.40
7686;DHT22;3885;51.474;-2.576;2022-08-01T15:45:36;26.20;98.70
7686;DHT22;3885;51.474;-2.576;2022-08-01T15:48:03;26.10;98.80
7686;DHT22;3885;51.474;-2.576;2022-08-01T15:50:30;26.10;98.90
7686;DHT22;3885;51.474;-2.576;2022-08-01T15:52:59;26.10;99.00
7686;DHT22;3885;51.474;-2.576;2022-08-01T15:55:26;26.20;99.10
7686;DHT22;3885;51.474;-2.576;2022-08-01T15:57:53;26.10;99.30
7686;DHT22;3885;51.474;-2.576;2022-08-01T16:00:20;26.20;98.70
7686;DHT22;3885;51.474;-2.576;2022-08-01T16:02:47;26.10;98.50
7686;DHT22;3885;51.474;-2.576;2022-08-01T16:05:13;26.10;98.90
7686;DHT22;3885;51.474;-2.576;2022-08-01T16:07:40;26.20;99.20
7686;DHT22;3885;51.474;-2.576;2022-08-01T16:10:09;26.30;98.80
7686;DHT22;3885;51.474;-2.576;2022-08-01T16:12:36;26.20;98.70